createdAt,value
2018-12-29T00:00:35.643Z,62.23
2018-12-29T00:03:31.364Z,61.73
2018-12-29T00:06:27.162Z,62.53
2018-12-29T00:09:22.635Z,56.93
2018-12-29T00:12:18.622Z,59.80
2018-12-29T00:15:14.232Z,59.80
2018-12-29T00:18:12.670Z,57.43
2018-12-29T00:21:08.626Z,56.03
2018-12-29T00:24:04.368Z,53.57
2018-12-29T00:26:59.974Z,54.57
2018-12-29T00:29:55.904Z,53.87
2018-12-29T00:32:54.395Z,55.33
2018-12-29T00:35:50.480Z,55.80
2018-12-29T00:38:46.551Z,56.00
2018-12-29T00:41:45.344Z,55.33
2018-12-29T00:44:41.162Z,57.03
2018-12-29T00:47:36.804Z,53.10
2018-12-29T00:50:32.605Z,53.80
2018-12-29T00:53:28.530Z,53.37
2018-12-29T00:56:24.351Z,51.70
2018-12-29T00:59:20.363Z,54.23
2018-12-29T01:02:17.836Z,52.97
2018-12-29T01:05:13.968Z,52.33
2018-12-29T01:08:09.896Z,53.03
2018-12-29T01:11:05.822Z,55.57
2018-12-29T01:14:01.620Z,51.77
2018-12-29T01:16:56.927Z,50.20
2018-12-29T01:19:52.770Z,49.50
2018-12-29T01:22:48.368Z,50.83
2018-12-29T01:25:43.985Z,52.00
2018-12-29T01:28:42.805Z,49.67
2018-12-29T01:31:38.593Z,49.60
2018-12-29T01:34:34.193Z,49.83
2018-12-29T01:37:30.153Z,49.50
2018-12-29T01:40:26.010Z,46.93
2018-12-29T01:43:21.997Z,47.73
2018-12-29T01:46:17.816Z,46.57
2018-12-29T01:49:13.963Z,48.17
2018-12-29T01:52:09.459Z,46.43
2018-12-29T01:55:07.595Z,45.23
2018-12-29T01:58:04.328Z,48.53
2018-12-29T02:01:00.216Z,45.20
2018-12-29T02:03:56.143Z,44.67
2018-12-29T02:06:52.069Z,45.50
2018-12-29T02:09:48.076Z,46.10
2018-12-29T02:12:43.917Z,44.50
2018-12-29T02:15:39.926Z,44.87
2018-12-29T02:18:35.379Z,44.80
2018-12-29T02:21:31.879Z,43.00
2018-12-29T02:24:27.590Z,42.80
2018-12-29T02:27:23.439Z,43.50
2018-12-29T02:30:19.464Z,44.27
2018-12-29T02:33:19.353Z,43.97
2018-12-29T02:36:13.569Z,43.83
2018-12-29T02:39:11.219Z,43.43
2018-12-29T02:42:07.055Z,44.77
2018-12-29T02:45:06.954Z,45.43
2018-12-29T02:48:02.497Z,44.37
2018-12-29T02:50:58.210Z,43.07
2018-12-29T02:53:54.108Z,42.93
2018-12-29T02:56:51.493Z,43.10
2018-12-29T02:59:47.008Z,41.17
2018-12-29T03:02:42.831Z,43.30
2018-12-29T03:05:38.646Z,42.20
2018-12-29T03:08:34.879Z,41.70
2018-12-29T03:11:30.805Z,41.13
2018-12-29T03:14:27.836Z,41.00
2018-12-29T03:17:23.864Z,38.83
2018-12-29T03:20:22.424Z,39.80
2018-12-29T03:23:18.051Z,38.70
2018-12-29T03:26:13.898Z,39.87
2018-12-29T03:29:12.823Z,39.87
2018-12-29T03:32:11.977Z,38.13
2018-12-29T03:35:08.339Z,39.47
2018-12-29T03:38:07.679Z,39.90
2018-12-29T03:41:02.133Z,36.90
2018-12-29T03:43:58.145Z,37.97
2018-12-29T03:46:53.964Z,38.97
2018-12-29T03:49:54.293Z,37.13
2018-12-29T03:52:50.161Z,37.00
2018-12-29T03:55:46.036Z,37.63
2018-12-29T03:58:41.874Z,35.93
2018-12-29T04:01:43.167Z,35.90
2018-12-29T04:04:39.462Z,38.70
2018-12-29T04:07:35.981Z,35.60
2018-12-29T04:10:31.748Z,38.10
2018-12-29T04:13:27.953Z,40.40
2018-12-29T04:16:23.468Z,42.37
2018-12-29T04:19:19.577Z,40.17
2018-12-29T04:22:15.299Z,43.20
2018-12-29T04:25:17.897Z,37.90
2018-12-29T04:28:14.130Z,36.60
2018-12-29T04:31:10.370Z,37.97
2018-12-29T04:34:09.048Z,36.87
2018-12-29T04:37:05.736Z,36.20
2018-12-29T04:40:02.237Z,37.63
2018-12-29T04:42:57.946Z,37.73
2018-12-29T04:45:55.116Z,37.40
2018-12-29T04:48:56.250Z,37.23
2018-12-29T04:51:54.630Z,36.63
2018-12-29T04:54:50.246Z,35.97
2018-12-29T04:57:47.780Z,36.13
2018-12-29T05:00:43.127Z,34.87
2018-12-29T05:03:39.144Z,35.53
2018-12-29T05:06:36.400Z,35.97
2018-12-29T05:09:33.158Z,33.30
2018-12-29T05:12:29.962Z,34.37
2018-12-29T05:15:26.323Z,34.70
2018-12-29T05:18:23.719Z,35.27
2018-12-29T05:21:36.504Z,35.70
2018-12-29T05:24:35.009Z,35.53
2018-12-29T05:27:34.628Z,34.90
2018-12-29T05:30:33.397Z,37.30
2018-12-29T05:33:31.313Z,33.67
2018-12-29T05:36:27.901Z,32.53
2018-12-29T05:39:24.136Z,33.17
2018-12-29T05:42:20.974Z,32.83
2018-12-29T05:45:17.693Z,32.43
2018-12-29T05:48:18.755Z,32.10
2018-12-29T05:51:34.787Z,30.23
2018-12-29T05:54:27.507Z,32.27
2018-12-29T05:57:35.565Z,33.20
2018-12-29T06:00:31.078Z,29.93
2018-12-29T06:03:28.253Z,29.57
2018-12-29T06:06:29.315Z,30.13
2018-12-29T06:09:25.730Z,31.27
2018-12-29T06:12:21.300Z,30.83
2018-12-29T06:15:20.238Z,29.53
2018-12-29T06:18:29.263Z,31.17
2018-12-29T06:21:24.949Z,30.93
2018-12-29T06:24:24.958Z,28.67
2018-12-29T06:27:23.513Z,29.47
2018-12-29T06:30:22.644Z,28.83
2018-12-29T06:33:20.509Z,26.97
2018-12-29T06:36:25.995Z,30.83
2018-12-29T06:39:20.527Z,30.83
2018-12-29T06:42:22.089Z,28.03
2018-12-29T06:45:19.345Z,29.10
2018-12-29T06:48:17.133Z,29.70
2018-12-29T06:51:26.392Z,30.43
2018-12-29T06:54:30.284Z,31.73
2018-12-29T06:57:56.061Z,28.70
2018-12-29T07:00:52.158Z,28.90
2018-12-29T07:03:52.969Z,27.90
2018-12-29T07:07:02.740Z,28.73
2018-12-29T07:09:58.438Z,27.57
2018-12-29T07:12:59.568Z,26.93
2018-12-29T07:15:58.751Z,27.03
2018-12-29T07:18:57.768Z,26.73
2018-12-29T07:22:03.030Z,27.37
2018-12-29T07:24:59.477Z,28.43
2018-12-29T07:27:56.243Z,26.50
2018-12-29T07:30:56.276Z,27.87
2018-12-29T07:33:53.747Z,25.17
2018-12-29T07:36:52.309Z,26.27
2018-12-29T07:39:50.646Z,27.03
2018-12-29T07:42:51.775Z,25.83
2018-12-29T07:45:47.722Z,27.10
2018-12-29T07:48:43.308Z,27.73
2018-12-29T07:51:38.711Z,25.77
2018-12-29T07:54:36.085Z,27.57
2018-12-29T07:57:34.925Z,24.87
2018-12-29T08:00:31.876Z,26.03
2018-12-29T08:03:30.982Z,26.17
2018-12-29T08:06:34.018Z,25.47
2018-12-29T08:09:35.445Z,26.30
2018-12-29T08:12:37.370Z,27.67
2018-12-29T08:15:36.444Z,26.90
2018-12-29T08:18:56.155Z,27.50
2018-12-29T08:21:53.308Z,27.20
2018-12-29T08:24:58.474Z,27.30
2018-12-29T08:27:47.673Z,26.27
2018-12-29T08:30:47.067Z,26.03
2018-12-29T08:33:47.274Z,25.30
2018-12-29T08:36:46.271Z,26.93
2018-12-29T08:39:42.469Z,27.27
2018-12-29T08:42:38.492Z,28.40
2018-12-29T08:45:59.315Z,28.13
2018-12-29T08:48:55.140Z,26.60
2018-12-29T08:51:58.090Z,28.90
2018-12-29T08:55:12.163Z,25.97
2018-12-29T08:58:15.341Z,25.63
2018-12-29T09:01:22.914Z,25.73
2018-12-29T09:04:39.048Z,25.67
2018-12-29T09:07:46.530Z,25.03
2018-12-29T09:10:51.717Z,25.93
2018-12-29T09:14:01.122Z,24.27
2018-12-29T09:17:12.709Z,23.33
2018-12-29T09:20:14.393Z,24.20
2018-12-29T09:23:29.090Z,25.53
2018-12-29T09:26:39.124Z,24.83
2018-12-29T09:29:37.729Z,25.07
2018-12-29T09:32:33.863Z,23.80
2018-12-29T09:35:32.326Z,26.37
2018-12-29T09:38:34.552Z,26.17
2018-12-29T09:41:34.701Z,28.80
2018-12-29T09:44:34.243Z,25.83
2018-12-29T09:47:31.929Z,24.77
2018-12-29T09:50:33.199Z,24.33
2018-12-29T09:54:09.611Z,24.30
2018-12-29T09:57:00.640Z,23.77
2018-12-29T10:00:03.283Z,24.97
2018-12-29T10:03:02.227Z,24.93
2018-12-29T10:06:00.473Z,24.20
2018-12-29T10:12:31.592Z,25.27
2018-12-29T10:15:30.610Z,24.20
2018-12-29T10:18:30.574Z,24.13
2018-12-29T10:21:29.710Z,23.90
2018-12-29T10:24:31.741Z,23.10
2018-12-29T10:27:31.918Z,25.90
2018-12-29T10:30:33.569Z,24.40
2018-12-29T10:33:40.199Z,25.33
2018-12-29T10:36:37.296Z,22.47
2018-12-29T10:39:46.062Z,23.43
2018-12-29T10:42:42.441Z,25.77
2018-12-29T10:45:39.260Z,24.47
2018-12-29T10:48:40.192Z,24.10
2018-12-29T10:51:39.625Z,23.50
2018-12-29T10:55:34.985Z,22.80
2018-12-29T10:59:02.113Z,24.83
2018-12-29T11:06:21.146Z,30.23
2018-12-29T11:09:17.638Z,27.63
2018-12-29T11:12:13.210Z,30.00
2018-12-29T11:15:20.681Z,23.93
2018-12-29T11:18:16.161Z,25.27
2018-12-29T11:21:13.748Z,27.43
2018-12-29T11:24:16.409Z,24.13
2018-12-29T11:27:15.816Z,24.33
2018-12-29T11:30:15.096Z,26.23
2018-12-29T11:33:13.800Z,28.27
2018-12-29T11:36:14.194Z,25.07
2018-12-29T11:39:11.899Z,31.43
2018-12-29T11:42:10.587Z,24.60
2018-12-29T11:45:18.426Z,30.33
2018-12-29T11:48:03.769Z,29.83
2018-12-29T11:51:00.462Z,29.07
2018-12-29T11:54:06.833Z,32.37
2018-12-29T11:57:03.120Z,31.47
2018-12-29T11:59:59.858Z,34.90
2018-12-29T12:02:56.544Z,33.10
2018-12-29T12:05:56.921Z,27.63
2018-12-29T12:08:56.177Z,30.17
2018-12-29T12:11:54.517Z,33.60
2018-12-29T12:14:51.076Z,35.70
2018-12-29T12:17:48.379Z,39.77
2018-12-29T12:20:49.525Z,43.30
2018-12-29T12:23:46.053Z,47.70
2018-12-29T12:26:49.894Z,42.00
2018-12-29T12:29:46.299Z,41.43
2018-12-29T12:32:46.770Z,40.70
2018-12-29T12:35:49.314Z,38.60
2018-12-29T12:38:56.419Z,42.43
2018-12-29T12:45:11.742Z,43.53
2018-12-29T12:48:17.144Z,36.00
2018-12-29T12:51:07.269Z,39.80
2018-12-29T12:54:04.727Z,39.27
2018-12-29T12:57:01.463Z,41.10
2018-12-29T12:59:57.833Z,42.73
2018-12-29T13:02:54.039Z,40.30
2018-12-29T13:05:49.852Z,41.27
2018-12-29T13:08:45.772Z,35.90
2018-12-29T13:11:42.080Z,37.07
2018-12-29T13:14:40.536Z,33.20
2018-12-29T13:17:35.931Z,31.77
2018-12-29T13:20:32.124Z,44.47
2018-12-29T13:23:29.612Z,48.67
2018-12-29T13:26:25.704Z,32.23
2018-12-29T13:29:25.568Z,44.43
2018-12-29T13:32:20.331Z,40.47
2018-12-29T13:35:16.879Z,41.60
2018-12-29T13:38:13.102Z,39.27
2018-12-29T13:41:09.740Z,32.10
2018-12-29T13:44:05.982Z,34.93
2018-12-29T13:47:02.824Z,40.17
2018-12-29T13:50:00.615Z,43.67
2018-12-29T13:52:57.343Z,48.37
2018-12-29T13:55:52.979Z,35.00
2018-12-29T13:58:49.254Z,46.77
2018-12-29T14:01:45.660Z,45.93
2018-12-29T14:04:42.287Z,40.47
2018-12-29T14:07:39.519Z,42.33
2018-12-29T14:10:35.269Z,55.50
2018-12-29T14:13:31.266Z,47.30
2018-12-29T14:16:51.567Z,51.87
2018-12-29T14:19:46.944Z,54.30
2018-12-29T14:22:43.517Z,53.90
2018-12-29T14:25:40.876Z,57.63
2018-12-29T14:28:38.133Z,61.67
2018-12-29T14:31:38.006Z,64.17
2018-12-29T14:34:36.363Z,62.53
2018-12-29T14:37:36.346Z,64.83
2018-12-29T14:40:33.600Z,66.60
2018-12-29T14:43:31.981Z,64.70
2018-12-29T14:46:28.418Z,62.00
2018-12-29T14:49:38.178Z,64.30
2018-12-29T14:52:34.015Z,74.30
2018-12-29T14:55:30.938Z,60.37
2018-12-29T14:58:28.497Z,63.07
2018-12-29T15:01:25.447Z,60.97
2018-12-29T15:04:21.862Z,60.13
2018-12-29T15:07:18.230Z,59.17
2018-12-29T15:10:16.100Z,60.13
2018-12-29T15:13:16.718Z,62.87
2018-12-29T15:16:08.836Z,51.50
2018-12-29T15:19:04.145Z,63.23
2018-12-29T15:22:04.600Z,59.17
2018-12-29T15:25:00.493Z,59.43
2018-12-29T15:27:56.356Z,59.20
2018-12-29T15:30:52.372Z,59.40
2018-12-29T15:33:48.306Z,74.20
2018-12-29T15:36:43.614Z,92.10
2018-12-29T15:39:41.205Z,92.00
2018-12-29T15:42:36.934Z,83.93
2018-12-29T15:45:36.911Z,62.70
2018-12-29T15:48:33.853Z,63.20
2018-12-29T15:51:29.589Z,62.90
2018-12-29T15:54:25.180Z,62.47
2018-12-29T15:57:22.558Z,60.67
2018-12-29T16:00:18.367Z,60.27
2018-12-29T16:03:13.589Z,63.80
2018-12-29T16:06:09.289Z,59.63
2018-12-29T16:09:05.215Z,65.50
2018-12-29T16:12:04.125Z,63.43
2018-12-29T16:15:04.565Z,68.30
2018-12-29T16:18:01.965Z,63.70
2018-12-29T16:21:04.571Z,67.33
2018-12-29T16:24:00.831Z,66.87
2018-12-29T16:26:56.522Z,66.07
2018-12-29T16:29:52.418Z,66.80
2018-12-29T16:32:48.910Z,66.07
2018-12-29T16:35:44.934Z,72.60
2018-12-29T16:38:40.890Z,68.87
2018-12-29T16:41:38.708Z,63.93
2018-12-29T16:44:34.658Z,68.77
2018-12-29T16:47:31.637Z,66.67
2018-12-29T16:50:28.421Z,61.17
2018-12-29T16:53:29.209Z,65.47
2018-12-29T16:56:21.327Z,64.20
2018-12-29T16:59:17.658Z,61.07
2018-12-29T17:02:14.262Z,62.93
2018-12-29T17:05:11.246Z,63.93
2018-12-29T17:08:07.365Z,63.57
2018-12-29T17:11:06.056Z,62.07
2018-12-29T17:14:02.499Z,63.73
2018-12-29T17:16:58.751Z,63.77
2018-12-29T17:19:54.862Z,63.20
2018-12-29T17:22:50.338Z,60.60
2018-12-29T17:25:45.960Z,66.83
2018-12-29T17:28:41.726Z,61.10
2018-12-29T17:31:37.912Z,60.10
2018-12-29T17:34:34.168Z,60.27
2018-12-29T17:37:29.844Z,61.60
2018-12-29T17:40:26.022Z,59.83
2018-12-29T17:43:33.363Z,58.80
2018-12-29T17:46:30.708Z,61.57
2018-12-29T17:49:36.305Z,60.10
2018-12-29T17:52:24.132Z,63.17
2018-12-29T17:55:19.760Z,58.97
2018-12-29T17:58:15.560Z,60.03
2018-12-29T18:01:11.226Z,58.50
2018-12-29T18:04:09.996Z,60.10
2018-12-29T18:07:05.545Z,57.43
2018-12-29T18:10:00.874Z,60.33
2018-12-29T18:13:00.533Z,60.93
2018-12-29T18:15:56.475Z,62.33
2018-12-29T18:18:53.526Z,56.93
2018-12-29T18:21:49.343Z,59.03
2018-12-29T18:24:45.269Z,70.07
2018-12-29T18:27:41.241Z,65.13
2018-12-29T18:30:37.494Z,71.53
2018-12-29T18:33:37.205Z,67.37
2018-12-29T18:36:30.425Z,73.67
2018-12-29T18:39:28.902Z,71.70
2018-12-29T18:42:24.250Z,66.23
2018-12-29T18:45:23.272Z,75.53
2018-12-29T18:48:19.090Z,72.17
2018-12-29T18:51:18.229Z,73.83
2018-12-29T18:54:14.242Z,83.43
2018-12-29T18:57:10.266Z,82.27
2018-12-29T19:00:06.494Z,80.03
2018-12-29T19:03:04.881Z,84.40
2018-12-29T19:06:02.033Z,78.80
2018-12-29T19:08:59.312Z,83.30
2018-12-29T19:11:55.710Z,78.67
2018-12-29T19:14:51.444Z,77.40
2018-12-29T19:17:47.330Z,67.37
2018-12-29T19:20:43.057Z,71.80
2018-12-29T19:23:44.301Z,74.00
2018-12-29T19:26:39.039Z,75.87
2018-12-29T19:29:35.858Z,83.77
2018-12-29T19:32:34.462Z,78.43
2018-12-29T19:35:30.699Z,72.43
2018-12-29T19:38:27.041Z,74.50
2018-12-29T19:41:23.051Z,68.77
2018-12-29T19:44:18.652Z,73.97
2018-12-29T19:47:15.783Z,70.30
2018-12-29T19:50:11.602Z,72.97
2018-12-29T19:53:07.166Z,73.20
2018-12-29T19:56:04.320Z,76.37
2018-12-29T19:58:59.690Z,74.10
2018-12-29T20:01:55.554Z,75.80
2018-12-29T20:04:51.295Z,84.00
2018-12-29T20:07:54.364Z,83.33
2018-12-29T20:10:50.182Z,72.23
2018-12-29T20:13:46.215Z,86.13
2018-12-29T20:16:42.252Z,95.63
2018-12-29T20:19:37.949Z,89.17
2018-12-29T20:22:34.091Z,90.17
2018-12-29T20:25:31.912Z,78.37
2018-12-29T20:28:26.829Z,95.37
2018-12-29T20:31:21.917Z,100.47
2018-12-29T20:34:17.688Z,104.03
2018-12-29T20:37:14.533Z,79.57
2018-12-29T20:40:11.687Z,108.83
2018-12-29T20:43:07.514Z,109.77
2018-12-29T20:46:05.751Z,122.83
2018-12-29T20:49:00.072Z,124.50
2018-12-29T20:51:56.000Z,100.43
2018-12-29T20:54:51.613Z,107.73
2018-12-29T20:57:47.850Z,116.33
2018-12-29T21:00:43.606Z,111.50
2018-12-29T21:03:41.562Z,111.43
2018-12-29T21:06:36.435Z,94.03
2018-12-29T21:09:32.452Z,96.50
2018-12-29T21:12:28.592Z,101.43
2018-12-29T21:15:24.061Z,96.90
2018-12-29T21:18:20.019Z,95.20
2018-12-29T21:21:16.365Z,96.80
2018-12-29T21:24:12.575Z,96.93
2018-12-29T21:27:09.230Z,90.17
2018-12-29T21:30:07.406Z,96.27
2018-12-29T21:33:02.820Z,97.37
2018-12-29T21:35:58.676Z,98.07
2018-12-29T21:38:54.540Z,93.13
2018-12-29T21:41:50.183Z,96.40
2018-12-29T21:44:45.802Z,92.47
2018-12-29T21:47:45.636Z,99.57
2018-12-29T21:50:38.686Z,90.73
2018-12-29T21:53:34.613Z,97.00
2018-12-29T21:56:30.846Z,97.23
2018-12-29T21:59:26.268Z,93.40
2018-12-29T22:02:23.429Z,98.50
2018-12-29T22:05:19.599Z,93.13
2018-12-29T22:08:22.662Z,93.60
2018-12-29T22:11:18.750Z,91.87
2018-12-29T22:14:15.719Z,90.10
2018-12-29T22:17:12.163Z,91.27
2018-12-29T22:20:07.898Z,85.30
2018-12-29T22:23:07.514Z,85.07
2018-12-29T22:26:03.501Z,87.90
2018-12-29T22:28:59.674Z,84.00
2018-12-29T22:31:56.795Z,81.37
2018-12-29T22:34:52.420Z,79.57
2018-12-29T22:37:58.273Z,78.80
2018-12-29T22:40:46.594Z,81.53
2018-12-29T22:43:42.227Z,78.43
2018-12-29T22:46:37.948Z,76.90
2018-12-29T22:49:33.732Z,79.17
2018-12-29T22:52:29.178Z,82.60
2018-12-29T22:55:28.571Z,83.63
2018-12-29T22:58:27.362Z,80.90
2018-12-29T23:01:23.502Z,81.67
2018-12-29T23:04:19.207Z,76.43
2018-12-29T23:07:14.610Z,74.70
2018-12-29T23:10:15.781Z,74.83
2018-12-29T23:13:14.166Z,74.60
2018-12-29T23:16:10.583Z,75.10
2018-12-29T23:19:05.953Z,70.87
2018-12-29T23:22:02.028Z,70.80
2018-12-29T23:24:58.246Z,69.67
2018-12-29T23:27:55.938Z,69.93
2018-12-29T23:30:52.577Z,67.80
2018-12-29T23:33:48.586Z,67.20
2018-12-29T23:36:46.371Z,68.77
2018-12-29T23:39:44.350Z,66.90
2018-12-29T23:42:44.218Z,66.13
2018-12-29T23:45:41.811Z,64.20
2018-12-29T23:48:37.865Z,65.23
2018-12-29T23:51:33.868Z,67.80
2018-12-29T23:54:30.215Z,69.17
2018-12-29T23:57:26.049Z,67.30
